sensor_id;sensor_type;location;lat;lon;timestamp;P1;durP1;ratioP1;P2;durP2;ratioP2
65368;SDS011;51970;53.484;49.488;2023-05-07T00:01:03;6.97;;;2.88;;
65368;SDS011;51970;53.484;49.488;2023-05-07T00:03:31;7.32;;;2.92;;
65368;SDS011;51970;53.484;49.488;2023-05-07T00:05:58;7.60;;;2.33;;
65368;SDS011;51970;53.484;49.488;2023-05-07T00:08:26;6.60;;;3.17;;
65368;SDS011;51970;53.484;49.488;2023-05-07T00:10:53;5.88;;;2.47;;
65368;SDS011;51970;53.484;49.488;2023-05-07T00:13:19;9.88;;;3.70;;
65368;SDS011;51970;53.484;49.488;2023-05-07T00:15:45;5.43;;;2.42;;
65368;SDS011;51970;53.484;49.488;2023-05-07T00:18:11;6.97;;;3.20;;
65368;SDS011;51970;53.484;49.488;2023-05-07T00:20:38;6.78;;;2.83;;
65368;SDS011;51970;53.484;49.488;2023-05-07T00:23:04;6.30;;;2.85;;
65368;SDS011;51970;53.484;49.488;2023-05-07T00:25:30;9.80;;;3.25;;
65368;SDS011;51970;53.484;49.488;2023-05-07T00:27:57;7.47;;;3.03;;
65368;SDS011;51970;53.484;49.488;2023-05-07T00:30:28;9.60;;;2.88;;
65368;SDS011;51970;53.484;49.488;2023-05-07T00:32:54;8.15;;;4.28;;
65368;SDS011;51970;53.484;49.488;2023-05-07T00:35:20;9.65;;;3.58;;
65368;SDS011;51970;53.484;49.488;2023-05-07T00:37:46;10.43;;;4.13;;
65368;SDS011;51970;53.484;49.488;2023-05-07T00:40:14;14.48;;;5.60;;
65368;SDS011;51970;53.484;49.488;2023-05-07T00:42:40;8.32;;;4.68;;
65368;SDS011;51970;53.484;49.488;2023-05-07T00:45:06;7.30;;;3.38;;
65368;SDS011;51970;53.484;49.488;2023-05-07T00:47:33;8.43;;;4.07;;
65368;SDS011;51970;53.484;49.488;2023-05-07T00:50:00;8.45;;;3.55;;
65368;SDS011;51970;53.484;49.488;2023-05-07T00:52:26;8.18;;;4.05;;
65368;SDS011;51970;53.484;49.488;2023-05-07T00:54:54;8.82;;;4.28;;
65368;SDS011;51970;53.484;49.488;2023-05-07T00:57:21;8.05;;;3.75;;
65368;SDS011;51970;53.484;49.488;2023-05-07T00:59:50;6.53;;;2.90;;
65368;SDS011;51970;53.484;49.488;2023-05-07T01:02:17;9.57;;;2.35;;
65368;SDS011;51970;53.484;49.488;2023-05-07T01:04:43;6.78;;;3.05;;
65368;SDS011;51970;53.484;49.488;2023-05-07T01:07:10;8.20;;;3.55;;
65368;SDS011;51970;53.484;49.488;2023-05-07T01:09:36;6.13;;;3.70;;
65368;SDS011;51970;53.484;49.488;2023-05-07T01:12:03;7.85;;;2.35;;
65368;SDS011;51970;53.484;49.488;2023-05-07T01:14:30;6.40;;;2.47;;
65368;SDS011;51970;53.484;49.488;2023-05-07T01:16:58;5.68;;;2.60;;
65368;SDS011;51970;53.484;49.488;2023-05-07T01:19:25;6.60;;;3.25;;
65368;SDS011;51970;53.484;49.488;2023-05-07T01:21:52;6.45;;;2.75;;
65368;SDS011;51970;53.484;49.488;2023-05-07T01:24:33;5.88;;;2.75;;
65368;SDS011;51970;53.484;49.488;2023-05-07T01:27:01;9.13;;;3.42;;
65368;SDS011;51970;53.484;49.488;2023-05-07T01:29:27;7.57;;;3.90;;
65368;SDS011;51970;53.484;49.488;2023-05-07T01:31:54;8.30;;;3.35;;
65368;SDS011;51970;53.484;49.488;2023-05-07T01:34:24;7.20;;;2.97;;
65368;SDS011;51970;53.484;49.488;2023-05-07T01:36:52;11.07;;;3.22;;
65368;SDS011;51970;53.484;49.488;2023-05-07T01:39:22;9.45;;;3.42;;
65368;SDS011;51970;53.484;49.488;2023-05-07T01:41:50;6.28;;;2.55;;
65368;SDS011;51970;53.484;49.488;2023-05-07T01:44:17;7.40;;;4.00;;
65368;SDS011;51970;53.484;49.488;2023-05-07T01:46:44;8.48;;;3.35;;
65368;SDS011;51970;53.484;49.488;2023-05-07T01:49:11;11.40;;;3.90;;
65368;SDS011;51970;53.484;49.488;2023-05-07T01:51:38;12.13;;;4.10;;
65368;SDS011;51970;53.484;49.488;2023-05-07T01:54:05;11.43;;;3.38;;
65368;SDS011;51970;53.484;49.488;2023-05-07T01:56:32;8.80;;;3.03;;
65368;SDS011;51970;53.484;49.488;2023-05-07T01:58:58;6.70;;;2.90;;
65368;SDS011;51970;53.484;49.488;2023-05-07T02:01:24;11.73;;;3.63;;
65368;SDS011;51970;53.484;49.488;2023-05-07T02:03:51;12.60;;;4.85;;
65368;SDS011;51970;53.484;49.488;2023-05-07T02:06:17;8.23;;;3.72;;
65368;SDS011;51970;53.484;49.488;2023-05-07T02:08:45;9.48;;;3.72;;
65368;SDS011;51970;53.484;49.488;2023-05-07T02:11:11;9.50;;;4.20;;
65368;SDS011;51970;53.484;49.488;2023-05-07T02:13:38;10.43;;;4.72;;
65368;SDS011;51970;53.484;49.488;2023-05-07T02:16:04;9.68;;;3.63;;
65368;SDS011;51970;53.484;49.488;2023-05-07T02:18:31;12.32;;;4.70;;
65368;SDS011;51970;53.484;49.488;2023-05-07T02:20:57;10.68;;;4.97;;
65368;SDS011;51970;53.484;49.488;2023-05-07T02:23:23;10.52;;;4.90;;
65368;SDS011;51970;53.484;49.488;2023-05-07T02:25:50;12.38;;;5.20;;
65368;SDS011;51970;53.484;49.488;2023-05-07T02:28:16;12.75;;;6.20;;
65368;SDS011;51970;53.484;49.488;2023-05-07T02:30:43;12.25;;;6.72;;
65368;SDS011;51970;53.484;49.488;2023-05-07T02:33:09;13.30;;;5.20;;
65368;SDS011;51970;53.484;49.488;2023-05-07T02:35:37;10.90;;;5.68;;
65368;SDS011;51970;53.484;49.488;2023-05-07T02:38:04;13.38;;;5.15;;
65368;SDS011;51970;53.484;49.488;2023-05-07T02:40:30;13.70;;;5.70;;
65368;SDS011;51970;53.484;49.488;2023-05-07T02:42:59;15.02;;;5.47;;
65368;SDS011;51970;53.484;49.488;2023-05-07T02:45:25;11.02;;;5.18;;
65368;SDS011;51970;53.484;49.488;2023-05-07T02:47:51;15.23;;;5.45;;
65368;SDS011;51970;53.484;49.488;2023-05-07T02:50:18;9.07;;;3.92;;
65368;SDS011;51970;53.484;49.488;2023-05-07T02:52:44;12.27;;;4.13;;
65368;SDS011;51970;53.484;49.488;2023-05-07T02:55:10;7.00;;;2.70;;
65368;SDS011;51970;53.484;49.488;2023-05-07T02:57:37;10.40;;;2.25;;
65368;SDS011;51970;53.484;49.488;2023-05-07T03:00:10;9.52;;;4.32;;
65368;SDS011;51970;53.484;49.488;2023-05-07T03:02:38;8.95;;;3.35;;
65368;SDS011;51970;53.484;49.488;2023-05-07T03:05:04;11.55;;;3.40;;
65368;SDS011;51970;53.484;49.488;2023-05-07T03:07:31;10.07;;;4.50;;
65368;SDS011;51970;53.484;49.488;2023-05-07T03:09:57;11.18;;;2.50;;
65368;SDS011;51970;53.484;49.488;2023-05-07T03:12:24;8.68;;;2.65;;
65368;SDS011;51970;53.484;49.488;2023-05-07T03:14:50;14.52;;;3.38;;
65368;SDS011;51970;53.484;49.488;2023-05-07T03:17:16;8.40;;;3.03;;
65368;SDS011;51970;53.484;49.488;2023-05-07T03:19:42;7.18;;;2.42;;
65368;SDS011;51970;53.484;49.488;2023-05-07T03:22:09;6.90;;;2.75;;
65368;SDS011;51970;53.484;49.488;2023-05-07T03:24:35;5.50;;;2.25;;
65368;SDS011;51970;53.484;49.488;2023-05-07T03:27:01;5.43;;;2.92;;
65368;SDS011;51970;53.484;49.488;2023-05-07T03:29:28;8.40;;;2.33;;
65368;SDS011;51970;53.484;49.488;2023-05-07T03:31:54;6.25;;;1.65;;
65368;SDS011;51970;53.484;49.488;2023-05-07T03:34:20;7.65;;;1.58;;
65368;SDS011;51970;53.484;49.488;2023-05-07T03:36:48;5.07;;;1.88;;
65368;SDS011;51970;53.484;49.488;2023-05-07T03:39:14;6.53;;;3.40;;
65368;SDS011;51970;53.484;49.488;2023-05-07T03:41:41;4.85;;;1.88;;
65368;SDS011;51970;53.484;49.488;2023-05-07T03:44:07;7.47;;;2.38;;
65368;SDS011;51970;53.484;49.488;2023-05-07T03:46:34;18.48;;;2.40;;
65368;SDS011;51970;53.484;49.488;2023-05-07T03:49:00;7.22;;;2.63;;
65368;SDS011;51970;53.484;49.488;2023-05-07T03:51:26;5.70;;;2.75;;
65368;SDS011;51970;53.484;49.488;2023-05-07T03:53:53;5.82;;;2.35;;
65368;SDS011;51970;53.484;49.488;2023-05-07T03:56:19;11.20;;;3.30;;
65368;SDS011;51970;53.484;49.488;2023-05-07T03:58:47;6.05;;;2.45;;
65368;SDS011;51970;53.484;49.488;2023-05-07T04:01:13;6.35;;;1.95;;
65368;SDS011;51970;53.484;49.488;2023-05-07T04:03:39;8.10;;;3.17;;
65368;SDS011;51970;53.484;49.488;2023-05-07T04:06:05;7.93;;;2.58;;
65368;SDS011;51970;53.484;49.488;2023-05-07T04:08:32;6.70;;;2.40;;
65368;SDS011;51970;53.484;49.488;2023-05-07T04:10:58;10.27;;;3.67;;
65368;SDS011;51970;53.484;49.488;2023-05-07T04:13:25;7.70;;;3.53;;
65368;SDS011;51970;53.484;49.488;2023-05-07T04:15:52;20.92;;;3.20;;
65368;SDS011;51970;53.484;49.488;2023-05-07T04:18:19;8.63;;;4.07;;
65368;SDS011;51970;53.484;49.488;2023-05-07T04:20:45;5.97;;;2.70;;
65368;SDS011;51970;53.484;49.488;2023-05-07T04:23:12;8.88;;;2.63;;
65368;SDS011;51970;53.484;49.488;2023-05-07T04:25:38;5.70;;;2.80;;
65368;SDS011;51970;53.484;49.488;2023-05-07T04:28:04;4.00;;;1.67;;
65368;SDS011;51970;53.484;49.488;2023-05-07T04:30:31;8.73;;;2.90;;
65368;SDS011;51970;53.484;49.488;2023-05-07T04:32:58;8.95;;;2.33;;
65368;SDS011;51970;53.484;49.488;2023-05-07T04:35:24;6.85;;;2.10;;
65368;SDS011;51970;53.484;49.488;2023-05-07T04:37:50;8.85;;;2.95;;
65368;SDS011;51970;53.484;49.488;2023-05-07T04:40:16;7.95;;;2.78;;
65368;SDS011;51970;53.484;49.488;2023-05-07T04:42:44;7.43;;;2.22;;
65368;SDS011;51970;53.484;49.488;2023-05-07T04:45:10;5.07;;;1.75;;
65368;SDS011;51970;53.484;49.488;2023-05-07T04:47:38;7.30;;;2.30;;
65368;SDS011;51970;53.484;49.488;2023-05-07T04:50:05;7.25;;;2.78;;
65368;SDS011;51970;53.484;49.488;2023-05-07T04:52:32;4.85;;;1.73;;
65368;SDS011;51970;53.484;49.488;2023-05-07T04:54:59;4.38;;;2.30;;
65368;SDS011;51970;53.484;49.488;2023-05-07T04:57:26;5.32;;;1.52;;
65368;SDS011;51970;53.484;49.488;2023-05-07T04:59:53;4.60;;;2.13;;
65368;SDS011;51970;53.484;49.488;2023-05-07T05:02:20;5.68;;;1.90;;
65368;SDS011;51970;53.484;49.488;2023-05-07T05:04:46;6.70;;;2.55;;
65368;SDS011;51970;53.484;49.488;2023-05-07T05:07:12;5.28;;;1.88;;
65368;SDS011;51970;53.484;49.488;2023-05-07T05:09:39;7.00;;;2.45;;
65368;SDS011;51970;53.484;49.488;2023-05-07T05:12:05;4.68;;;1.98;;
65368;SDS011;51970;53.484;49.488;2023-05-07T05:14:32;4.35;;;1.67;;
65368;SDS011;51970;53.484;49.488;2023-05-07T05:16:59;7.25;;;1.45;;
65368;SDS011;51970;53.484;49.488;2023-05-07T05:19:25;12.30;;;1.85;;
65368;SDS011;51970;53.484;49.488;2023-05-07T05:21:51;3.13;;;1.20;;
65368;SDS011;51970;53.484;49.488;2023-05-07T05:24:18;7.80;;;1.90;;
65368;SDS011;51970;53.484;49.488;2023-05-07T05:26:44;5.95;;;2.08;;
65368;SDS011;51970;53.484;49.488;2023-05-07T05:29:10;4.18;;;1.80;;
65368;SDS011;51970;53.484;49.488;2023-05-07T05:31:37;5.13;;;2.22;;
65368;SDS011;51970;53.484;49.488;2023-05-07T05:34:03;7.75;;;2.20;;
65368;SDS011;51970;53.484;49.488;2023-05-07T05:36:29;3.85;;;1.67;;
65368;SDS011;51970;53.484;49.488;2023-05-07T05:38:56;3.92;;;1.40;;
65368;SDS011;51970;53.484;49.488;2023-05-07T05:41:22;4.50;;;1.35;;
65368;SDS011;51970;53.484;49.488;2023-05-07T05:43:48;5.50;;;2.28;;
65368;SDS011;51970;53.484;49.488;2023-05-07T05:46:15;6.93;;;1.10;;
65368;SDS011;51970;53.484;49.488;2023-05-07T05:48:42;5.20;;;2.83;;
65368;SDS011;51970;53.484;49.488;2023-05-07T05:51:08;5.00;;;2.25;;
65368;SDS011;51970;53.484;49.488;2023-05-07T05:53:34;4.18;;;1.85;;
65368;SDS011;51970;53.484;49.488;2023-05-07T05:56:01;5.40;;;1.40;;
65368;SDS011;51970;53.484;49.488;2023-05-07T05:58:27;6.70;;;1.88;;
65368;SDS011;51970;53.484;49.488;2023-05-07T06:00:54;4.82;;;2.25;;
65368;SDS011;51970;53.484;49.488;2023-05-07T06:03:20;4.50;;;1.33;;
65368;SDS011;51970;53.484;49.488;2023-05-07T06:05:47;3.85;;;1.25;;
65368;SDS011;51970;53.484;49.488;2023-05-07T06:08:13;4.78;;;2.55;;
65368;SDS011;51970;53.484;49.488;2023-05-07T06:10:39;4.32;;;1.65;;
65368;SDS011;51970;53.484;49.488;2023-05-07T06:13:06;3.75;;;1.17;;
65368;SDS011;51970;53.484;49.488;2023-05-07T06:15:32;3.33;;;1.42;;
65368;SDS011;51970;53.484;49.488;2023-05-07T06:17:58;4.78;;;2.30;;
65368;SDS011;51970;53.484;49.488;2023-05-07T06:20:25;5.20;;;1.67;;
65368;SDS011;51970;53.484;49.488;2023-05-07T06:22:52;4.03;;;1.60;;
65368;SDS011;51970;53.484;49.488;2023-05-07T06:25:19;6.10;;;2.00;;
65368;SDS011;51970;53.484;49.488;2023-05-07T06:27:45;4.97;;;2.40;;
65368;SDS011;51970;53.484;49.488;2023-05-07T06:30:11;4.25;;;1.45;;
65368;SDS011;51970;53.484;49.488;2023-05-07T06:32:39;4.25;;;1.58;;
65368;SDS011;51970;53.484;49.488;2023-05-07T06:35:06;4.03;;;1.45;;
65368;SDS011;51970;53.484;49.488;2023-05-07T06:37:33;4.28;;;2.03;;
65368;SDS011;51970;53.484;49.488;2023-05-07T06:39:59;4.55;;;1.77;;
65368;SDS011;51970;53.484;49.488;2023-05-07T06:42:25;10.40;;;1.25;;
65368;SDS011;51970;53.484;49.488;2023-05-07T06:44:52;5.05;;;2.20;;
65368;SDS011;51970;53.484;49.488;2023-05-07T06:47:18;4.43;;;2.78;;
65368;SDS011;51970;53.484;49.488;2023-05-07T06:49:45;3.78;;;1.58;;
65368;SDS011;51970;53.484;49.488;2023-05-07T06:52:11;4.75;;;1.77;;
65368;SDS011;51970;53.484;49.488;2023-05-07T06:54:37;5.57;;;1.73;;
65368;SDS011;51970;53.484;49.488;2023-05-07T06:57:04;6.28;;;1.85;;
65368;SDS011;51970;53.484;49.488;2023-05-07T06:59:30;3.85;;;1.40;;
65368;SDS011;51970;53.484;49.488;2023-05-07T07:01:56;5.38;;;1.42;;
65368;SDS011;51970;53.484;49.488;2023-05-07T07:04:23;4.70;;;1.65;;
65368;SDS011;51970;53.484;49.488;2023-05-07T07:06:53;3.55;;;1.17;;
65368;SDS011;51970;53.484;49.488;2023-05-07T07:09:20;5.50;;;1.70;;
65368;SDS011;51970;53.484;49.488;2023-05-07T07:11:46;4.38;;;1.77;;
65368;SDS011;51970;53.484;49.488;2023-05-07T07:14:12;7.20;;;1.67;;
65368;SDS011;51970;53.484;49.488;2023-05-07T07:16:39;4.55;;;1.85;;
65368;SDS011;51970;53.484;49.488;2023-05-07T07:19:05;3.42;;;1.58;;
65368;SDS011;51970;53.484;49.488;2023-05-07T07:21:31;3.35;;;1.13;;
65368;SDS011;51970;53.484;49.488;2023-05-07T07:24:02;3.13;;;1.67;;
65368;SDS011;51970;53.484;49.488;2023-05-07T07:26:29;5.15;;;1.25;;
65368;SDS011;51970;53.484;49.488;2023-05-07T07:28:55;3.13;;;1.27;;
65368;SDS011;51970;53.484;49.488;2023-05-07T07:31:21;4.57;;;1.92;;
65368;SDS011;51970;53.484;49.488;2023-05-07T07:33:48;5.88;;;1.70;;
65368;SDS011;51970;53.484;49.488;2023-05-07T07:36:15;6.47;;;2.13;;
65368;SDS011;51970;53.484;49.488;2023-05-07T07:38:42;3.67;;;1.77;;
65368;SDS011;51970;53.484;49.488;2023-05-07T07:41:08;4.95;;;1.33;;
65368;SDS011;51970;53.484;49.488;2023-05-07T07:43:35;4.10;;;1.30;;
65368;SDS011;51970;53.484;49.488;2023-05-07T07:46:01;3.53;;;2.00;;
65368;SDS011;51970;53.484;49.488;2023-05-07T07:48:27;3.60;;;1.58;;
65368;SDS011;51970;53.484;49.488;2023-05-07T07:50:54;7.53;;;2.10;;
65368;SDS011;51970;53.484;49.488;2023-05-07T07:53:20;5.38;;;1.92;;
65368;SDS011;51970;53.484;49.488;2023-05-07T07:55:46;4.00;;;2.10;;
65368;SDS011;51970;53.484;49.488;2023-05-07T07:58:13;2.83;;;1.40;;
65368;SDS011;51970;53.484;49.488;2023-05-07T08:00:39;4.25;;;1.90;;
65368;SDS011;51970;53.484;49.488;2023-05-07T08:03:06;3.53;;;1.38;;
65368;SDS011;51970;53.484;49.488;2023-05-07T08:05:35;4.55;;;1.52;;
65368;SDS011;51970;53.484;49.488;2023-05-07T08:08:02;6.68;;;1.35;;
65368;SDS011;51970;53.484;49.488;2023-05-07T08:10:28;4.18;;;1.92;;
65368;SDS011;51970;53.484;49.488;2023-05-07T08:12:54;2.97;;;1.13;;
65368;SDS011;51970;53.484;49.488;2023-05-07T08:15:21;4.28;;;1.80;;
65368;SDS011;51970;53.484;49.488;2023-05-07T08:17:47;6.15;;;1.92;;
65368;SDS011;51970;53.484;49.488;2023-05-07T08:20:13;4.50;;;1.38;;
65368;SDS011;51970;53.484;49.488;2023-05-07T08:22:40;4.50;;;1.70;;
65368;SDS011;51970;53.484;49.488;2023-05-07T08:25:06;5.22;;;2.20;;
65368;SDS011;51970;53.484;49.488;2023-05-07T08:27:33;2.88;;;1.15;;
65368;SDS011;51970;53.484;49.488;2023-05-07T08:29:59;4.07;;;1.63;;
65368;SDS011;51970;53.484;49.488;2023-05-07T08:32:26;9.68;;;1.60;;
65368;SDS011;51970;53.484;49.488;2023-05-07T08:34:53;5.63;;;1.30;;
65368;SDS011;51970;53.484;49.488;2023-05-07T08:37:19;3.08;;;1.30;;
65368;SDS011;51970;53.484;49.488;2023-05-07T08:39:46;6.07;;;1.55;;
65368;SDS011;51970;53.484;49.488;2023-05-07T08:42:12;8.35;;;1.92;;
65368;SDS011;51970;53.484;49.488;2023-05-07T08:44:42;7.70;;;1.88;;
65368;SDS011;51970;53.484;49.488;2023-05-07T08:47:14;3.40;;;1.33;;
65368;SDS011;51970;53.484;49.488;2023-05-07T08:49:41;4.13;;;1.77;;
65368;SDS011;51970;53.484;49.488;2023-05-07T08:52:07;6.10;;;2.20;;
65368;SDS011;51970;53.484;49.488;2023-05-07T08:54:34;3.80;;;1.40;;
65368;SDS011;51970;53.484;49.488;2023-05-07T08:57:02;4.97;;;1.23;;
65368;SDS011;51970;53.484;49.488;2023-05-07T08:59:29;2.22;;;0.80;;
65368;SDS011;51970;53.484;49.488;2023-05-07T09:01:55;7.30;;;2.65;;
65368;SDS011;51970;53.484;49.488;2023-05-07T09:04:22;4.90;;;2.15;;
65368;SDS011;51970;53.484;49.488;2023-05-07T09:06:48;3.58;;;1.38;;
65368;SDS011;51970;53.484;49.488;2023-05-07T09:09:17;4.40;;;1.70;;
65368;SDS011;51970;53.484;49.488;2023-05-07T09:11:46;6.88;;;1.48;;
65368;SDS011;51970;53.484;49.488;2023-05-07T09:14:12;3.92;;;1.77;;
65368;SDS011;51970;53.484;49.488;2023-05-07T09:16:39;3.72;;;0.98;;
65368;SDS011;51970;53.484;49.488;2023-05-07T09:19:05;6.85;;;2.83;;
65368;SDS011;51970;53.484;49.488;2023-05-07T09:21:34;7.53;;;2.13;;
65368;SDS011;51970;53.484;49.488;2023-05-07T09:24:03;5.70;;;1.80;;
65368;SDS011;51970;53.484;49.488;2023-05-07T09:26:30;4.43;;;1.50;;
65368;SDS011;51970;53.484;49.488;2023-05-07T09:28:58;5.00;;;1.50;;
65368;SDS011;51970;53.484;49.488;2023-05-07T09:31:25;3.58;;;1.45;;
65368;SDS011;51970;53.484;49.488;2023-05-07T09:33:52;4.90;;;2.03;;
65368;SDS011;51970;53.484;49.488;2023-05-07T09:36:19;4.97;;;1.85;;
65368;SDS011;51970;53.484;49.488;2023-05-07T09:38:45;5.15;;;2.15;;
65368;SDS011;51970;53.484;49.488;2023-05-07T09:41:12;5.03;;;2.20;;
65368;SDS011;51970;53.484;49.488;2023-05-07T09:43:39;7.35;;;2.17;;
65368;SDS011;51970;53.484;49.488;2023-05-07T09:46:07;4.75;;;2.17;;
65368;SDS011;51970;53.484;49.488;2023-05-07T09:48:38;5.88;;;1.85;;
65368;SDS011;51970;53.484;49.488;2023-05-07T09:53:40;9.80;;;2.67;;
65368;SDS011;51970;53.484;49.488;2023-05-07T09:56:09;8.40;;;2.65;;
65368;SDS011;51970;53.484;49.488;2023-05-07T09:58:36;5.05;;;2.28;;
65368;SDS011;51970;53.484;49.488;2023-05-07T10:01:04;5.28;;;2.08;;
65368;SDS011;51970;53.484;49.488;2023-05-07T10:03:32;10.60;;;1.27;;
65368;SDS011;51970;53.484;49.488;2023-05-07T10:06:01;5.65;;;2.47;;
65368;SDS011;51970;53.484;49.488;2023-05-07T10:08:30;5.03;;;2.13;;
65368;SDS011;51970;53.484;49.488;2023-05-07T10:10:57;6.07;;;2.28;;
65368;SDS011;51970;53.484;49.488;2023-05-07T10:13:25;6.43;;;2.25;;
65368;SDS011;51970;53.484;49.488;2023-05-07T10:15:51;7.45;;;2.90;;
65368;SDS011;51970;53.484;49.488;2023-05-07T10:18:19;4.47;;;1.52;;
65368;SDS011;51970;53.484;49.488;2023-05-07T10:20:49;4.88;;;1.73;;
65368;SDS011;51970;53.484;49.488;2023-05-07T10:23:19;7.15;;;2.00;;
65368;SDS011;51970;53.484;49.488;2023-05-07T10:25:49;7.97;;;2.22;;
65368;SDS011;51970;53.484;49.488;2023-05-07T10:28:16;5.95;;;1.23;;
65368;SDS011;51970;53.484;49.488;2023-05-07T10:33:41;3.67;;;1.15;;
65368;SDS011;51970;53.484;49.488;2023-05-07T10:36:11;5.18;;;2.20;;
65368;SDS011;51970;53.484;49.488;2023-05-07T10:38:38;4.25;;;2.35;;
65368;SDS011;51970;53.484;49.488;2023-05-07T10:41:06;5.13;;;1.95;;
65368;SDS011;51970;53.484;49.488;2023-05-07T10:43:39;5.32;;;2.08;;
65368;SDS011;51970;53.484;49.488;2023-05-07T10:46:17;4.57;;;2.20;;
65368;SDS011;51970;53.484;49.488;2023-05-07T10:51:26;5.07;;;2.53;;
65368;SDS011;51970;53.484;49.488;2023-05-07T10:56:42;8.07;;;3.75;;
65368;SDS011;51970;53.484;49.488;2023-05-07T11:01:59;6.15;;;2.22;;
65368;SDS011;51970;53.484;49.488;2023-05-07T11:04:31;9.85;;;1.50;;
65368;SDS011;51970;53.484;49.488;2023-05-07T11:15:07;7.95;;;1.85;;
65368;SDS011;51970;53.484;49.488;2023-05-07T11:17:58;3.33;;;1.67;;
65368;SDS011;51970;53.484;49.488;2023-05-07T11:26:03;6.07;;;2.63;;
65368;SDS011;51970;53.484;49.488;2023-05-07T11:28:31;9.13;;;2.40;;
65368;SDS011;51970;53.484;49.488;2023-05-07T11:31:10;4.13;;;2.08;;
65368;SDS011;51970;53.484;49.488;2023-05-07T11:33:37;5.10;;;2.60;;
65368;SDS011;51970;53.484;49.488;2023-05-07T11:36:04;4.75;;;1.98;;
65368;SDS011;51970;53.484;49.488;2023-05-07T11:38:36;4.20;;;1.90;;
65368;SDS011;51970;53.484;49.488;2023-05-07T11:41:04;5.57;;;1.58;;
65368;SDS011;51970;53.484;49.488;2023-05-07T11:43:31;4.38;;;1.83;;
65368;SDS011;51970;53.484;49.488;2023-05-07T11:46:05;5.53;;;1.70;;
65368;SDS011;51970;53.484;49.488;2023-05-07T11:48:33;3.33;;;1.10;;
65368;SDS011;51970;53.484;49.488;2023-05-07T11:51:00;5.00;;;2.33;;
65368;SDS011;51970;53.484;49.488;2023-05-07T11:53:35;5.30;;;2.25;;
65368;SDS011;51970;53.484;49.488;2023-05-07T11:56:07;4.60;;;2.15;;
65368;SDS011;51970;53.484;49.488;2023-05-07T11:58:34;5.50;;;1.92;;
65368;SDS011;51970;53.484;49.488;2023-05-07T12:01:01;5.05;;;2.53;;
65368;SDS011;51970;53.484;49.488;2023-05-07T12:03:28;13.00;;;3.35;;
65368;SDS011;51970;53.484;49.488;2023-05-07T12:05:54;7.00;;;2.03;;
65368;SDS011;51970;53.484;49.488;2023-05-07T12:08:21;5.45;;;1.80;;
65368;SDS011;51970;53.484;49.488;2023-05-07T12:10:49;6.47;;;1.92;;
65368;SDS011;51970;53.484;49.488;2023-05-07T12:15:43;6.50;;;2.10;;
65368;SDS011;51970;53.484;49.488;2023-05-07T12:18:11;5.13;;;2.28;;
65368;SDS011;51970;53.484;49.488;2023-05-07T12:20:38;5.65;;;1.58;;
65368;SDS011;51970;53.484;49.488;2023-05-07T12:23:05;5.90;;;1.63;;
65368;SDS011;51970;53.484;49.488;2023-05-07T12:25:31;4.97;;;1.70;;
65368;SDS011;51970;53.484;49.488;2023-05-07T12:28:00;4.05;;;1.48;;
65368;SDS011;51970;53.484;49.488;2023-05-07T12:30:27;4.35;;;1.45;;
65368;SDS011;51970;53.484;49.488;2023-05-07T12:32:54;6.55;;;1.90;;
65368;SDS011;51970;53.484;49.488;2023-05-07T12:35:37;7.50;;;1.90;;
65368;SDS011;51970;53.484;49.488;2023-05-07T12:38:11;5.47;;;2.58;;
65368;SDS011;51970;53.484;49.488;2023-05-07T12:40:40;6.10;;;2.10;;
65368;SDS011;51970;53.484;49.488;2023-05-07T12:43:08;5.80;;;1.83;;
65368;SDS011;51970;53.484;49.488;2023-05-07T12:45:42;4.05;;;1.48;;
65368;SDS011;51970;53.484;49.488;2023-05-07T12:48:10;4.32;;;1.48;;
65368;SDS011;51970;53.484;49.488;2023-05-07T12:50:36;3.95;;;1.50;;
65368;SDS011;51970;53.484;49.488;2023-05-07T12:53:06;10.38;;;2.35;;
65368;SDS011;51970;53.484;49.488;2023-05-07T12:55:40;4.63;;;1.42;;
65368;SDS011;51970;53.484;49.488;2023-05-07T12:58:08;4.82;;;1.75;;
65368;SDS011;51970;53.484;49.488;2023-05-07T13:00:40;10.70;;;3.15;;
65368;SDS011;51970;53.484;49.488;2023-05-07T13:03:08;8.38;;;2.45;;
65368;SDS011;51970;53.484;49.488;2023-05-07T13:05:35;7.82;;;2.25;;
65368;SDS011;51970;53.484;49.488;2023-05-07T13:08:01;4.18;;;2.08;;
65368;SDS011;51970;53.484;49.488;2023-05-07T13:10:28;4.82;;;1.60;;
65368;SDS011;51970;53.484;49.488;2023-05-07T13:12:54;3.47;;;1.13;;
65368;SDS011;51970;53.484;49.488;2023-05-07T13:15:21;7.63;;;1.58;;
65368;SDS011;51970;53.484;49.488;2023-05-07T13:17:47;3.92;;;1.83;;
65368;SDS011;51970;53.484;49.488;2023-05-07T13:20:13;3.78;;;1.52;;
65368;SDS011;51970;53.484;49.488;2023-05-07T13:22:41;5.78;;;2.45;;
65368;SDS011;51970;53.484;49.488;2023-05-07T13:25:07;5.60;;;1.73;;
65368;SDS011;51970;53.484;49.488;2023-05-07T13:27:34;4.32;;;1.92;;
65368;SDS011;51970;53.484;49.488;2023-05-07T13:30:03;3.72;;;1.15;;
65368;SDS011;51970;53.484;49.488;2023-05-07T13:32:31;4.32;;;2.22;;
65368;SDS011;51970;53.484;49.488;2023-05-07T13:34:57;7.07;;;2.10;;
65368;SDS011;51970;53.484;49.488;2023-05-07T13:37:23;3.92;;;1.27;;
65368;SDS011;51970;53.484;49.488;2023-05-07T13:39:50;5.00;;;2.40;;
65368;SDS011;51970;53.484;49.488;2023-05-07T13:42:16;8.18;;;3.78;;
65368;SDS011;51970;53.484;49.488;2023-05-07T13:44:43;9.60;;;3.25;;
65368;SDS011;51970;53.484;49.488;2023-05-07T13:47:10;3.67;;;1.35;;
65368;SDS011;51970;53.484;49.488;2023-05-07T13:49:36;5.80;;;2.95;;
65368;SDS011;51970;53.484;49.488;2023-05-07T13:52:03;6.05;;;2.28;;
65368;SDS011;51970;53.484;49.488;2023-05-07T13:54:29;7.93;;;2.35;;
65368;SDS011;51970;53.484;49.488;2023-05-07T13:56:56;5.85;;;2.47;;
65368;SDS011;51970;53.484;49.488;2023-05-07T13:59:22;7.72;;;2.28;;
65368;SDS011;51970;53.484;49.488;2023-05-07T14:01:48;5.00;;;2.05;;
65368;SDS011;51970;53.484;49.488;2023-05-07T14:04:15;7.13;;;3.08;;
65368;SDS011;51970;53.484;49.488;2023-05-07T14:06:41;5.03;;;2.33;;
65368;SDS011;51970;53.484;49.488;2023-05-07T14:09:07;7.93;;;2.28;;
65368;SDS011;51970;53.484;49.488;2023-05-07T14:11:34;11.32;;;2.15;;
65368;SDS011;51970;53.484;49.488;2023-05-07T14:14:00;4.68;;;2.05;;
65368;SDS011;51970;53.484;49.488;2023-05-07T14:16:27;6.03;;;3.05;;
65368;SDS011;51970;53.484;49.488;2023-05-07T14:18:53;8.95;;;3.45;;
65368;SDS011;51970;53.484;49.488;2023-05-07T14:21:19;7.50;;;3.10;;
65368;SDS011;51970;53.484;49.488;2023-05-07T14:23:46;5.45;;;2.20;;
65368;SDS011;51970;53.484;49.488;2023-05-07T14:26:12;5.95;;;2.72;;
65368;SDS011;51970;53.484;49.488;2023-05-07T14:28:40;5.32;;;1.95;;
65368;SDS011;51970;53.484;49.488;2023-05-07T14:31:12;8.45;;;2.30;;
65368;SDS011;51970;53.484;49.488;2023-05-07T14:33:38;8.35;;;2.22;;
65368;SDS011;51970;53.484;49.488;2023-05-07T14:36:05;7.85;;;3.17;;
65368;SDS011;51970;53.484;49.488;2023-05-07T14:38:33;8.00;;;2.97;;
65368;SDS011;51970;53.484;49.488;2023-05-07T14:40:59;6.60;;;2.72;;
65368;SDS011;51970;53.484;49.488;2023-05-07T14:43:26;7.05;;;2.40;;
65368;SDS011;51970;53.484;49.488;2023-05-07T14:45:52;5.10;;;2.33;;
65368;SDS011;51970;53.484;49.488;2023-05-07T14:48:19;7.63;;;1.88;;
65368;SDS011;51970;53.484;49.488;2023-05-07T14:50:48;5.82;;;2.00;;
65368;SDS011;51970;53.484;49.488;2023-05-07T14:53:15;6.40;;;2.80;;
65368;SDS011;51970;53.484;49.488;2023-05-07T14:55:41;4.47;;;1.30;;
65368;SDS011;51970;53.484;49.488;2023-05-07T14:58:08;5.60;;;1.80;;
65368;SDS011;51970;53.484;49.488;2023-05-07T15:00:34;5.90;;;2.35;;
65368;SDS011;51970;53.484;49.488;2023-05-07T15:03:05;5.82;;;2.15;;